Aérodrome :
LOGIN :

S'inscrire | Disclaimer

   EN    FR    IT 

 










Légende :    VFR   VFR Marginal   IFR   IFR Intensif   IFR Très Intensif
Visi : 
Plafond : 
>= 8 km
>= 3000ft
5 à 8 km
1000 à 3000 ft
1500m à 5 km
500 à 1000 ft
800 à 1500m
200 à 500 ft
< 800m
< 200 ft
Symboles :   Orages  Brouillard  Fortes neiges  Fortes précipitations  Vent > 20 kt
SIGMETs :   Divers  Orages  Givrage  Turbulence  Onde Orograph.  Cendres Volcan.






- Altitude de l'aérodrome : 1989 ft
- Code IATA : KLV


LKKV - Karlovy Vary

DERNIER METAR :
  • 172100Z 24006KT 200V270 9999 SCT018 05/02 Q1017

METARs EXPIRÉS :
  • 172000Z 24007KT 180V280 9999 BKN014 05/03 Q1017
  • 171900Z 23006KT 190V260 9999 BKN015 05/03 Q1016
  • 171830Z 23004KT 200V280 9999 BKN015 05/03 Q1017

TAF TAF LKKV
Valide du 17 à 18h jusqu'au 19 à 00h UTC


171700Z 1718/1900 24012KT 9999 BKN020
TEMPO 1718/1900 26014G26KT 7000 RA BKN010
PROB30
TEMPO 1718/1803 4000 RA BR BKN005
PROB30
TEMPO 1803/1900 2500 SHRASN BKN004



MET'MAP, la Météo Aéronautique d'un coup d'oeil ! - Copyright ORBIFLY Décembre 2007 - Disclaimer

ORBIFLY MET'MAP TEAM :

Programmation & Développement : Alexandra Zaïnal
Sur une idée originale de : Baudouin d'Aumeries
Assistance à la programmation : Marc-Olivier Méhu
Soutien technique & logistique : Manuel Goepfert

Contact : metmap@orbifly.com




SOURCES & CREDITS :

   NOAA